AKDT,Max TemperatureF,Mean TemperatureF,Min TemperatureF,Max Dew PointF,MeanDew PointF,Min DewpointF,Max Humidity, Mean Humidity, Min Humidity, Max Sea Level PressureIn, Mean Sea Level PressureIn, Min Sea Level PressureIn, Max VisibilityMiles, Mean VisibilityMiles, Min VisibilityMiles, Max Wind SpeedMPH, Mean Wind SpeedMPH, Max Gust SpeedMPH,PrecipitationIn, CloudCover, Events, WindDirDegrees
2013-8-1,62,58,55,55,53,51,90,81,71,30.10,30.01,29.94,10,10,9,21,14,31,0.16,6,Rain,100
2013-8-2,61,59,57,54,53,52,89,83,64,29.94,29.83,29.60,10,10,9,21,12,29,0.02,8,Rain,85
2013-8-3,59,56,53,54,53,49,100,90,71,29.86,29.68,29.54,10,7,2,25,15,37,0.55,8,Rain,97
2013-8-4,62,58,53,54,53,51,100,89,68,29.94,29.91,29.86,10,9,3,14,7,20,0.20,7,Rain,107
2013-8-5,57,56,54,54,52,50,93,86,78,29.93,29.89,29.86,10,10,5,18,13,25,0.24,8,Rain,96
2013-8-6,62,58,55,53,52,51,94,82,68,29.84,29.72,29.63,10,10,9,30,14,46,0.01,8,Rain,87
2013-8-7,59,56,53,54,52,49,97,85,67,29.70,29.68,29.64,10,9,4,22,15,33,0.24,7,Rain,115
2013-8-8,55,52,50,52,49,47,100,87,66,29.68,29.66,29.63,10,8,4,21,12,33,0.55,7,Rain,106
2013-8-9,59,55,51,54,50,48,100,86,75,29.73,29.66,29.61,10,10,5,20,10,30,0.02,8,Rain,122
2013-8-10,61,56,52,52,49,48,100,82,64,30.01,29.84,29.73,10,10,5,13,9,18,0.01,8,Rain,103
2013-8-11,63,57,51,52,50,48,96,81,61,30.05,30.04,30.02,10,10,10,9,3,,0.01,8,Rain,262
2013-8-12,64,58,51,56,53,50,100,88,67,30.05,30.03,30.02,10,10,10,6,3,,0.00,8,Rain,173
2013-8-13,61,56,53,55,53,49,100,89,72,30.02,29.99,29.97,10,10,10,20,3,24,0.02,7,Rain,112
2013-8-14,60,56,53,52,50,48,90,79,58,30.02,29.98,29.93,10,10,10,13,7,,0.01,6,Rain,97
2013-8-15,63,57,51,54,51,48,100,88,61,29.92,29.83,29.75,10,7,1,9,2,,0.01,6,Rain,148
2013-8-16,57,54,52,54,50,47,97,84,70,29.76,29.68,29.59,10,10,10,9,5,,0.04,6,Rain,61
2013-8-17,68,61,54,55,51,49,93,76,51,29.59,29.56,29.54,10,10,10,13,7,20,0.01,8,Rain,23
2013-8-18,75,62,48,57,53,48,97,72,39,29.67,29.59,29.56,10,10,10,20,6,20,0.00,5,,320
2013-8-19,64,58,52,55,50,47,93,86,70,29.79,29.74,29.67,10,10,3,17,8,29,0.02,8,Rain,196
2013-8-20,60,54,48,55,51,48,100,87,64,29.88,29.85,29.79,10,10,9,8,1,,0.01,8,Rain,155
2013-8-21,55,53,51,55,53,51,100,98,94,29.87,29.81,29.76,10,3,1,14,8,22,0.28,8,Rain,184
2013-8-22,57,54,51,56,53,51,100,99,94,29.79,29.77,29.76,6,3,1,14,5,20,0.24,8,Rain,211
2013-8-23,61,56,50,54,49,45,100,76,57,29.78,29.76,29.73,10,10,10,15,10,23,0.04,5,,282
2013-8-24,69,58,48,47,45,42,86,59,32,29.80,29.76,29.74,10,10,10,22,9,29,0.00,0,,316
2013-8-25,60,52,44,51,46,41,90,74,55,29.79,29.75,29.72,10,10,10,8,5,,0.00,4,,316
2013-8-26,55,53,51,52,51,48,100,94,78,29.82,29.77,29.75,10,8,2,9,2,,0.04,8,Rain,176
2013-8-27,62,56,51,54,51,49,97,85,55,29.88,29.85,29.82,10,10,2,15,4,25,0.08,8,Rain,227
2013-8-28,55,50,46,49,47,45,100,85,67,29.82,29.71,29.52,10,10,10,13,6,21,0.00,8,Rain,193
2013-8-29,62,56,50,52,49,47,93,83,67,29.90,29.66,29.48,10,10,9,15,8,22,0.08,8,Rain,17
2013-8-30,66,57,50,54,50,45,93,79,48,30.01,29.99,29.91,10,10,10,10,3,,0.00,5,,273
2013-8-31,55,51,48,52,49,46,100,91,77,29.99,29.92,29.87,10,9,3,6,2,,0.08,8,Rain,145